ESNG

Gällivare Airport

Gällivare, Sweden
METAR ESNG 151320Z AUTO 10002KT 5000 -SN OVC006/// M06/M07 Q0994
Observed Flight Rules
Dec-15 @ 13:20 UTC (47 minutes ago) Instrument Flight Rules
Wind Visibility Clouds Conditions
100° at 2 knots 5,005 meters
  • Overcast at 600' AGL
  • Light Snow
Temperatures Readings
Current -6°C / 21°F
Dewpoint -7°C / 19°F
Humidity 93%
Altimeter 29.35" Hg
Pressure 994 hPa
Elevation 310
METAR ESNG 151320Z AUTO 10002KT 5000 -SN OVC006/// M06/M07 Q0994
Observed Flight Rules
Dec-15 @ 13:20 UTC
(47 minutes ago)
IFR
Wind Visibility
100° at 2 knots 5,005 meters
Clouds
  • Overcast at 600' AGL
Conditions
  • Light Snow
Temperature Dewpoint
-6°C / 21°F -7°C / 19°F
Humidity Altimeter Pressure
93% 29.35" Hg 994 hPa